Time;durP1;ratioP1;P1;durP2;ratioP2;P2;SDS_P1;SDS_P2;PMS_P1;PMS_P2;Temp;Humidity;BMP_temperature;BMP_pressure;BME280_temperature;BME280_humidity;BME280_pressure;Samples;Min_cycle;Max_cycle;Signal;HPM_P1;HPM_P2
2022/07/06 00:01:21;;;;;;;;;2.25;2.25;;;;;;;;5119284;27;45561;-64
2022/07/06 00:03:46;;;;;;;;;2.00;2.00;;;;;;;;5119222;27;45633;-65
2022/07/06 00:06:11;;;;;;;;;2.25;2.25;;;;;;;;5118605;27;45609;-66
2022/07/06 00:08:37;;;;;;;;;2.75;2.75;;;;;;;;5114048;27;46632;-64
2022/07/06 00:11:03;;;;;;;;;4.00;2.50;;;;;;;;5116931;27;45425;-65
2022/07/06 00:13:28;;;;;;;;;2.00;2.00;;;;;;;;5119075;27;45583;-65
2022/07/06 00:15:53;;;;;;;;;3.75;1.25;;;;;;;;5100149;27;45532;-66
2022/07/06 00:18:19;;;;;;;;;1.75;1.50;;;;;;;;5119040;27;46499;-65
2022/07/06 00:20:44;;;;;;;;;2.25;2.25;;;;;;;;5114391;27;45439;-65
2022/07/06 00:23:09;;;;;;;;;2.25;2.25;;;;;;;;5115559;27;45464;-64
2022/07/06 00:25:34;;;;;;;;;3.00;3.00;;;;;;;;5118919;27;45479;-65
2022/07/06 00:28:00;;;;;;;;;2.25;1.50;;;;;;;;5118602;27;46526;-64
2022/07/06 00:30:25;;;;;;;;;3.25;3.00;;;;;;;;5122040;27;45361;-64
2022/07/06 00:32:50;;;;;;;;;1.50;1.50;;;;;;;;5118891;27;45527;-64
2022/07/06 00:35:15;;;;;;;;;3.75;2.75;;;;;;;;5117665;27;45510;-64
2022/07/06 00:37:40;;;;;;;;;3.25;3.25;;;;;;;;5094755;27;48466;-63
2022/07/06 00:40:06;;;;;;;;;2.25;2.25;;;;;;;;5094512;27;45482;-65
2022/07/06 00:42:38;;;;;;;;;1.75;1.75;;;;;;;;5094728;27;45467;-64
2022/07/06 00:45:04;;;;;;;;;2.25;2.25;;;;;;;;5113390;27;45544;-65
2022/07/06 00:47:29;;;;;;;;;2.75;2.00;;;;;;;;5113001;27;45645;-65
2022/07/06 00:52:38;;;;;;;;;3.00;2.75;;;;;;;;5112914;27;45427;-65
2022/07/06 00:55:04;;;;;;;;;2.25;2.25;;;;;;;;5113002;27;45565;-64
2022/07/06 00:57:29;;;;;;;;;4.00;3.00;;;;;;;;5112768;27;46052;-64
2022/07/06 00:59:54;;;;;;;;;2.50;2.50;;;;;;;;5094345;27;45441;-64
2022/07/06 01:02:22;;;;;;;;;3.00;3.00;;;;;;;;5113219;27;45551;-65
2022/07/06 01:04:47;;;;;;;;;1.50;1.50;;;;;;;;5112423;27;45556;-65
2022/07/06 01:07:12;;;;;;;;;3.50;2.25;;;;;;;;5112558;27;45530;-65
2022/07/06 01:09:38;;;;;;;;;5.50;3.25;;;;;;;;5094097;27;45499;-64
2022/07/06 01:12:04;;;;;;;;;3.00;3.00;;;;;;;;5113031;27;45584;-64
2022/07/06 01:14:29;;;;;;;;;4.00;4.00;;;;;;;;5112834;27;45411;-65
2022/07/06 01:16:54;;;;;;;;;4.75;4.00;;;;;;;;5113180;27;45884;-64
2022/07/06 01:19:19;;;;;;;;;3.00;3.00;;;;;;;;5112385;27;45588;-64
2022/07/06 01:21:45;;;;;;;;;3.75;3.25;;;;;;;;5112744;27;45573;-65
2022/07/06 01:24:10;;;;;;;;;5.75;4.00;;;;;;;;5094101;27;45544;-65
2022/07/06 01:26:35;;;;;;;;;4.50;4.50;;;;;;;;5112265;27;45672;-64
2022/07/06 01:29:00;;;;;;;;;3.00;3.00;;;;;;;;5113101;27;45350;-64
2022/07/06 01:31:26;;;;;;;;;2.75;2.50;;;;;;;;5112339;27;45474;-65
2022/07/06 01:33:52;;;;;;;;;4.00;3.00;;;;;;;;5112094;27;45519;-64
2022/07/06 01:36:17;;;;;;;;;5.00;3.50;;;;;;;;5112068;27;45456;-65
2022/07/06 01:38:46;;;;;;;;;3.50;3.50;;;;;;;;5112307;27;45985;-65
2022/07/06 01:41:12;;;;;;;;;2.75;2.75;;;;;;;;5090058;27;46083;-65
2022/07/06 01:43:38;;;;;;;;;3.00;2.50;;;;;;;;5112101;27;45566;-66
2022/07/06 01:46:03;;;;;;;;;3.00;3.00;;;;;;;;5093298;27;46393;-66
2022/07/06 01:48:28;;;;;;;;;3.00;3.00;;;;;;;;5112050;27;45686;-65
2022/07/06 01:50:53;;;;;;;;;2.50;2.50;;;;;;;;5112016;27;45951;-65
2022/07/06 01:53:19;;;;;;;;;4.00;3.00;;;;;;;;5112176;27;45487;-65
2022/07/06 01:55:44;;;;;;;;;4.00;4.00;;;;;;;;5112142;27;45773;-65
2022/07/06 01:58:09;;;;;;;;;3.00;2.00;;;;;;;;5111588;27;45398;-65
2022/07/06 02:00:34;;;;;;;;;4.25;3.00;;;;;;;;5111863;27;45592;-64
2022/07/06 02:03:00;;;;;;;;;3.50;2.50;;;;;;;;5093469;27;45576;-64
2022/07/06 02:05:25;;;;;;;;;3.25;3.25;;;;;;;;5111833;27;45479;-64
2022/07/06 02:07:50;;;;;;;;;4.00;4.00;;;;;;;;5112264;27;45389;-64
2022/07/06 02:10:15;;;;;;;;;4.50;3.75;;;;;;;;5111836;27;45436;-64
2022/07/06 02:12:40;;;;;;;;;4.50;4.50;;;;;;;;5111638;27;45360;-65
2022/07/06 02:15:06;;;;;;;;;4.00;4.00;;;;;;;;5111529;27;46633;-66
2022/07/06 02:17:31;;;;;;;;;3.00;3.00;;;;;;;;5111765;27;45430;-64
2022/07/06 02:19:56;;;;;;;;;6.25;5.00;;;;;;;;5112526;27;45415;-65
2022/07/06 02:22:22;;;;;;;;;4.00;3.50;;;;;;;;5112035;27;45423;-65
2022/07/06 02:24:47;;;;;;;;;4.75;3.50;;;;;;;;5093068;27;48491;-65
2022/07/06 02:27:12;;;;;;;;;3.00;2.75;;;;;;;;5092869;27;45467;-65
2022/07/06 02:29:37;;;;;;;;;5.00;3.25;;;;;;;;5112020;27;45558;-64
2022/07/06 02:32:03;;;;;;;;;3.75;2.75;;;;;;;;5112113;27;45428;-64
2022/07/06 02:34:28;;;;;;;;;3.50;3.50;;;;;;;;5110918;27;46076;-64
2022/07/06 02:36:53;;;;;;;;;3.50;3.00;;;;;;;;5111658;27;45653;-65
2022/07/06 02:39:18;;;;;;;;;4.25;3.75;;;;;;;;5111570;27;45639;-64
2022/07/06 02:41:43;;;;;;;;;3.50;3.50;;;;;;;;5093243;27;45426;-65
2022/07/06 02:44:09;;;;;;;;;3.75;3.75;;;;;;;;5093340;27;47355;-64
2022/07/06 02:46:34;;;;;;;;;4.25;4.00;;;;;;;;5111166;27;45640;-64
2022/07/06 02:48:59;;;;;;;;;4.25;4.25;;;;;;;;5092706;27;45500;-64
2022/07/06 02:51:24;;;;;;;;;4.00;4.00;;;;;;;;5091866;27;45545;-64
2022/07/06 02:53:49;;;;;;;;;5.25;2.50;;;;;;;;5111132;27;46398;-64
2022/07/06 02:56:15;;;;;;;;;1.50;1.50;;;;;;;;5111538;27;45612;-64
2022/07/06 02:58:40;;;;;;;;;6.00;5.00;;;;;;;;5111458;27;45601;-64
2022/07/06 03:01:05;;;;;;;;;4.25;4.25;;;;;;;;5092449;27;45526;-64
2022/07/06 03:03:30;;;;;;;;;5.25;4.50;;;;;;;;5111070;27;45763;-64
2022/07/06 03:05:56;;;;;;;;;8.75;5.50;;;;;;;;5092382;27;45683;-65
2022/07/06 03:08:21;;;;;;;;;6.00;5.75;;;;;;;;5111371;27;45451;-65
2022/07/06 03:10:46;;;;;;;;;7.75;5.75;;;;;;;;5111419;27;45466;-65
2022/07/06 03:13:11;;;;;;;;;4.75;4.75;;;;;;;;5110753;27;46629;-64
2022/07/06 03:15:36;;;;;;;;;4.75;4.00;;;;;;;;5110989;27;45471;-65
2022/07/06 03:18:02;;;;;;;;;5.25;5.25;;;;;;;;5092275;27;45651;-65
2022/07/06 03:20:27;;;;;;;;;3.25;3.25;;;;;;;;5092426;27;45936;-64
2022/07/06 03:22:52;;;;;;;;;4.50;4.50;;;;;;;;5110939;27;46168;-66
2022/07/06 03:25:17;;;;;;;;;5.25;5.25;;;;;;;;5110325;27;45464;-64
2022/07/06 03:27:42;;;;;;;;;6.25;5.50;;;;;;;;5110839;27;45933;-64
2022/07/06 03:30:08;;;;;;;;;6.00;6.00;;;;;;;;5110827;27;45767;-64
2022/07/06 03:32:33;;;;;;;;;5.25;4.25;;;;;;;;5110560;27;46548;-65
2022/07/06 03:34:58;;;;;;;;;6.25;6.25;;;;;;;;5092223;27;45539;-64
2022/07/06 03:37:24;;;;;;;;;6.25;5.00;;;;;;;;5110690;27;45626;-65
2022/07/06 03:39:49;;;;;;;;;5.75;5.75;;;;;;;;5110817;27;45633;-66
2022/07/06 03:42:14;;;;;;;;;8.50;7.75;;;;;;;;5110545;27;46677;-66
2022/07/06 03:44:39;;;;;;;;;5.50;5.50;;;;;;;;5091944;27;45721;-65
2022/07/06 03:47:04;;;;;;;;;7.00;6.25;;;;;;;;5111243;27;45458;-64
2022/07/06 03:49:29;;;;;;;;;7.00;6.00;;;;;;;;5110634;27;45517;-64
2022/07/06 03:51:55;;;;;;;;;7.00;6.00;;;;;;;;5110158;27;46763;-64
2022/07/06 03:54:20;;;;;;;;;7.00;6.00;;;;;;;;5091562;27;45406;-64
2022/07/06 03:56:45;;;;;;;;;4.50;4.50;;;;;;;;5092253;27;45712;-64
2022/07/06 03:59:10;;;;;;;;;8.75;6.50;;;;;;;;5111493;27;45611;-64
2022/07/06 04:01:35;;;;;;;;;7.00;6.00;;;;;;;;5110451;27;45574;-64
2022/07/06 04:04:01;;;;;;;;;6.00;6.00;;;;;;;;5094083;27;45612;-66
2022/07/06 04:06:26;;;;;;;;;6.00;6.00;;;;;;;;5106742;27;45551;-66
2022/07/06 04:08:51;;;;;;;;;4.00;4.00;;;;;;;;5113658;27;45387;-65
2022/07/06 04:11:17;;;;;;;;;5.50;4.00;;;;;;;;5114363;27;45923;-64
2022/07/06 04:13:42;;;;;;;;;4.25;4.25;;;;;;;;5097823;27;45500;-65
2022/07/06 04:16:08;;;;;;;;;5.00;5.00;;;;;;;;5109194;27;45586;-64
2022/07/06 04:18:33;;;;;;;;;5.75;5.75;;;;;;;;5113880;27;45562;-64
2022/07/06 04:20:58;;;;;;;;;5.25;5.25;;;;;;;;5095371;27;46567;-64
2022/07/06 04:23:24;;;;;;;;;5.50;5.50;;;;;;;;5113944;27;45489;-64
2022/07/06 04:25:49;;;;;;;;;6.00;5.00;;;;;;;;5114308;27;45487;-64
2022/07/06 04:28:14;;;;;;;;;4.75;4.75;;;;;;;;5113527;27;45563;-65
2022/07/06 04:30:39;;;;;;;;;6.75;6.00;;;;;;;;5113392;27;46522;-66
2022/07/06 04:33:05;;;;;;;;;4.00;4.00;;;;;;;;5113453;27;45462;-65
2022/07/06 04:35:30;;;;;;;;;6.00;6.00;;;;;;;;5094548;27;45423;-66
2022/07/06 04:37:55;;;;;;;;;7.50;5.50;;;;;;;;5095134;27;45468;-63
2022/07/06 04:40:20;;;;;;;;;5.50;5.50;;;;;;;;5112911;27;45989;-63
2022/07/06 04:42:46;;;;;;;;;7.75;6.75;;;;;;;;5112849;27;45412;-65
2022/07/06 04:45:11;;;;;;;;;6.00;6.00;;;;;;;;5113190;27;45768;-64
2022/07/06 04:47:36;;;;;;;;;5.25;5.25;;;;;;;;5113224;27;45437;-64
2022/07/06 04:50:02;;;;;;;;;6.00;6.00;;;;;;;;5113533;27;46566;-65
2022/07/06 04:52:27;;;;;;;;;6.75;6.75;;;;;;;;5112662;27;45418;-64
2022/07/06 04:54:54;;;;;;;;;10.75;8.00;;;;;;;;5112844;27;45650;-64
2022/07/06 04:57:19;;;;;;;;;6.00;6.00;;;;;;;;5112864;27;45545;-64
2022/07/06 04:59:44;;;;;;;;;8.00;8.00;;;;;;;;5113182;27;45392;-64
2022/07/06 05:02:09;;;;;;;;;7.50;7.50;;;;;;;;5113684;27;45502;-64
2022/07/06 05:04:35;;;;;;;;;8.00;6.25;;;;;;;;5112976;27;45650;-65
2022/07/06 05:07:00;;;;;;;;;7.50;7.50;;;;;;;;5112837;27;45471;-65
2022/07/06 05:09:25;;;;;;;;;7.50;7.00;;;;;;;;5112512;27;45506;-64
2022/07/06 05:11:50;;;;;;;;;6.00;6.00;;;;;;;;5112883;27;45397;-65
2022/07/06 05:14:15;;;;;;;;;8.00;8.00;;;;;;;;5112282;27;45525;-65
2022/07/06 05:16:41;;;;;;;;;9.00;8.00;;;;;;;;5112915;27;45700;-65
2022/07/06 05:19:06;;;;;;;;;5.50;4.25;;;;;;;;5112520;27;45901;-65
2022/07/06 05:21:31;;;;;;;;;8.50;5.00;;;;;;;;5112239;27;45682;-67
2022/07/06 05:23:56;;;;;;;;;7.00;7.00;;;;;;;;5112854;27;45882;-65
2022/07/06 05:26:21;;;;;;;;;5.50;5.50;;;;;;;;5112727;27;45452;-65
2022/07/06 05:28:47;;;;;;;;;7.00;7.00;;;;;;;;5112741;27;45864;-65
2022/07/06 05:31:12;;;;;;;;;8.50;8.00;;;;;;;;5093540;27;45712;-64
2022/07/06 05:33:37;;;;;;;;;5.75;5.25;;;;;;;;5112382;27;45611;-64
2022/07/06 05:36:02;;;;;;;;;7.00;7.00;;;;;;;;5112332;27;45573;-66
2022/07/06 05:38:28;;;;;;;;;5.50;5.50;;;;;;;;5112400;27;46932;-64
2022/07/06 05:40:53;;;;;;;;;5.50;5.50;;;;;;;;5112755;27;45498;-65
2022/07/06 05:43:18;;;;;;;;;6.00;6.00;;;;;;;;5112454;27;45423;-64
2022/07/06 05:45:43;;;;;;;;;9.00;8.00;;;;;;;;5112275;27;45451;-65
2022/07/06 05:50:53;;;;;;;;;4.00;4.00;;;;;;;;5096911;27;45504;-64
2022/07/06 05:53:18;;;;;;;;;6.75;6.75;;;;;;;;5093610;27;45544;-64
2022/07/06 05:55:44;;;;;;;;;6.25;6.25;;;;;;;;5093944;27;45753;-65
2022/07/06 05:58:09;;;;;;;;;6.00;6.00;;;;;;;;5111791;27;45486;-64
2022/07/06 06:00:34;;;;;;;;;5.50;5.50;;;;;;;;5093173;27;45433;-64
2022/07/06 06:03:00;;;;;;;;;6.25;6.25;;;;;;;;5112252;27;45542;-63
2022/07/06 06:05:25;;;;;;;;;7.50;7.25;;;;;;;;5093550;27;45442;-64
2022/07/06 06:07:53;;;;;;;;;6.50;6.50;;;;;;;;5112169;27;45728;-64
2022/07/06 06:10:19;;;;;;;;;6.00;6.00;;;;;;;;5111616;27;45432;-64
2022/07/06 06:12:45;;;;;;;;;6.75;6.00;;;;;;;;5093188;27;45516;-64
2022/07/06 06:15:10;;;;;;;;;4.50;4.50;;;;;;;;5093169;27;45567;-65
2022/07/06 06:17:36;;;;;;;;;7.75;7.75;;;;;;;;5092933;27;47198;-66
2022/07/06 06:20:02;;;;;;;;;9.25;8.25;;;;;;;;5093794;27;45546;-65
2022/07/06 06:22:27;;;;;;;;;9.75;7.75;;;;;;;;5111681;27;45451;-65
2022/07/06 06:24:53;;;;;;;;;7.75;7.75;;;;;;;;5111745;27;45373;-64
2022/07/06 06:27:18;;;;;;;;;6.00;6.00;;;;;;;;5110193;27;46354;-64
2022/07/06 06:29:44;;;;;;;;;4.75;4.75;;;;;;;;5111754;27;45415;-65
2022/07/06 06:32:10;;;;;;;;;5.50;5.50;;;;;;;;5112391;27;45530;-65
2022/07/06 06:34:35;;;;;;;;;9.75;9.75;;;;;;;;5092685;27;45441;-65
2022/07/06 06:37:00;;;;;;;;;5.75;5.75;;;;;;;;5111388;27;46675;-64
2022/07/06 06:39:25;;;;;;;;;9.75;8.00;;;;;;;;5111051;27;45411;-65
2022/07/06 06:41:51;;;;;;;;;5.75;5.75;;;;;;;;5092875;27;47342;-64
2022/07/06 06:44:17;;;;;;;;;10.25;7.50;;;;;;;;5111574;27;45466;-65
2022/07/06 06:46:43;;;;;;;;;8.75;7.50;;;;;;;;5092382;27;46903;-64
2022/07/06 06:49:08;;;;;;;;;6.00;6.00;;;;;;;;5110476;27;45364;-66
2022/07/06 06:51:33;;;;;;;;;7.50;6.50;;;;;;;;5092084;27;45355;-66
2022/07/06 06:53:58;;;;;;;;;7.50;4.75;;;;;;;;5110594;27;45615;-64
2022/07/06 06:56:24;;;;;;;;;6.50;6.50;;;;;;;;5092080;27;48410;-64
2022/07/06 06:58:49;;;;;;;;;6.25;6.25;;;;;;;;5092423;27;45709;-66
2022/07/06 07:01:14;;;;;;;;;6.00;6.00;;;;;;;;5092349;27;45635;-65
2022/07/06 07:03:39;;;;;;;;;7.00;6.00;;;;;;;;5092515;27;45368;-64
2022/07/06 07:06:05;;;;;;;;;10.00;6.25;;;;;;;;5110840;27;45755;-65
2022/07/06 07:08:30;;;;;;;;;5.00;5.00;;;;;;;;5110674;27;45500;-66
2022/07/06 07:10:55;;;;;;;;;5.50;5.50;;;;;;;;5111352;27;45825;-65
2022/07/06 07:13:20;;;;;;;;;6.25;6.00;;;;;;;;5110661;27;45530;-65
2022/07/06 07:15:46;;;;;;;;;9.00;6.25;;;;;;;;5110494;27;45834;-64
2022/07/06 07:18:11;;;;;;;;;6.75;6.75;;;;;;;;5110768;27;45603;-64
2022/07/06 07:20:36;;;;;;;;;5.50;5.25;;;;;;;;5110838;27;46207;-65
2022/07/06 07:23:01;;;;;;;;;6.00;6.00;;;;;;;;5111254;27;45453;-65
2022/07/06 07:25:27;;;;;;;;;3.50;3.50;;;;;;;;5091738;27;46275;-63
2022/07/06 07:27:53;;;;;;;;;5.00;4.75;;;;;;;;5110465;27;46035;-65
2022/07/06 07:30:18;;;;;;;;;6.50;4.50;;;;;;;;5110933;27;45990;-64
2022/07/06 07:32:43;;;;;;;;;6.50;6.50;;;;;;;;5094064;27;45936;-64
2022/07/06 07:35:09;;;;;;;;;8.75;8.75;;;;;;;;5091876;27;47646;-63
2022/07/06 07:37:34;;;;;;;;;3.50;3.50;;;;;;;;5091153;27;45600;-65
2022/07/06 07:40:00;;;;;;;;;5.50;5.50;;;;;;;;5110413;27;45919;-64
2022/07/06 07:42:25;;;;;;;;;3.50;3.50;;;;;;;;5110273;27;45950;-65
2022/07/06 07:44:50;;;;;;;;;5.25;4.75;;;;;;;;5109911;27;45403;-64
2022/07/06 07:47:15;;;;;;;;;4.50;4.50;;;;;;;;5091874;27;45725;-65
2022/07/06 07:49:41;;;;;;;;;6.00;6.00;;;;;;;;5091627;27;45742;-64
2022/07/06 07:52:06;;;;;;;;;3.75;3.25;;;;;;;;5091309;27;45550;-65
2022/07/06 07:54:31;;;;;;;;;8.25;5.00;;;;;;;;5109792;27;46247;-64
2022/07/06 07:56:56;;;;;;;;;3.25;3.25;;;;;;;;5091057;27;45549;-65
2022/07/06 07:59:22;;;;;;;;;4.75;4.75;;;;;;;;5091665;27;45607;-64
2022/07/06 08:01:47;;;;;;;;;5.00;4.00;;;;;;;;5091875;27;45561;-65
2022/07/06 08:04:12;;;;;;;;;4.75;4.75;;;;;;;;5109692;27;46485;-64
2022/07/06 08:06:37;;;;;;;;;3.75;2.75;;;;;;;;5091200;27;45456;-64
2022/07/06 08:09:04;;;;;;;;;4.25;4.25;;;;;;;;5110020;27;45471;-64
2022/07/06 08:11:29;;;;;;;;;4.00;4.00;;;;;;;;5110029;27;45626;-65
2022/07/06 08:13:55;;;;;;;;;3.00;3.00;;;;;;;;5109856;27;46500;-64
2022/07/06 08:16:20;;;;;;;;;3.00;3.00;;;;;;;;5109600;27;47646;-64
2022/07/06 08:18:45;;;;;;;;;5.75;4.50;;;;;;;;5109750;27;46005;-64
2022/07/06 08:21:11;;;;;;;;;7.25;5.50;;;;;;;;5091482;27;45665;-64
2022/07/06 08:23:36;;;;;;;;;4.25;3.00;;;;;;;;5091054;27;47716;-66
2022/07/06 08:26:02;;;;;;;;;7.75;5.50;;;;;;;;5091689;27;46272;-64
2022/07/06 08:28:27;;;;;;;;;4.00;4.00;;;;;;;;5091014;27;45588;-64
2022/07/06 08:30:54;;;;;;;;;8.25;6.25;;;;;;;;5109521;27;45499;-64
2022/07/06 08:33:19;;;;;;;;;6.75;6.75;;;;;;;;5109356;27;46709;-65
2022/07/06 08:35:44;;;;;;;;;4.00;4.00;;;;;;;;5109292;27;45769;-66
2022/07/06 08:38:10;;;;;;;;;4.00;4.00;;;;;;;;5091553;27;45993;-64
2022/07/06 08:40:38;;;;;;;;;5.00;4.50;;;;;;;;5090806;27;45547;-66
2022/07/06 08:43:03;;;;;;;;;4.75;4.75;;;;;;;;5109284;27;46437;-64
2022/07/06 08:45:29;;;;;;;;;2.50;2.50;;;;;;;;5109244;27;45677;-65
2022/07/06 08:47:54;;;;;;;;;5.25;5.00;;;;;;;;5091228;27;45759;-66
2022/07/06 08:50:20;;;;;;;;;4.00;4.00;;;;;;;;5111354;27;45476;-66
2022/07/06 08:52:47;;;;;;;;;5.00;3.25;;;;;;;;5113079;27;45399;-65
2022/07/06 08:55:12;;;;;;;;;5.50;3.50;;;;;;;;5113197;27;46108;-65
2022/07/06 08:57:39;;;;;;;;;4.00;4.00;;;;;;;;5112684;27;45638;-66
2022/07/06 09:00:05;;;;;;;;;5.00;5.00;;;;;;;;5112966;27;46156;-66
2022/07/06 09:02:30;;;;;;;;;5.00;3.25;;;;;;;;5112619;27;45966;-67
2022/07/06 09:04:57;;;;;;;;;5.00;4.50;;;;;;;;5111067;27;46103;-66
2022/07/06 09:07:23;;;;;;;;;3.00;3.00;;;;;;;;5094020;27;45915;-66
2022/07/06 09:09:49;;;;;;;;;4.50;4.50;;;;;;;;5112548;27;45814;-65
2022/07/06 09:12:14;;;;;;;;;5.25;4.25;;;;;;;;5112455;27;46239;-66
2022/07/06 09:14:39;;;;;;;;;4.00;4.00;;;;;;;;5093827;27;45813;-67
2022/07/06 09:17:05;;;;;;;;;2.00;2.00;;;;;;;;5113193;27;45475;-65
2022/07/06 09:19:31;;;;;;;;;4.25;3.00;;;;;;;;5112466;27;45777;-64
2022/07/06 09:21:56;;;;;;;;;4.50;4.00;;;;;;;;5112277;27;45937;-64
2022/07/06 09:24:22;;;;;;;;;3.50;3.00;;;;;;;;5112304;27;45589;-64
2022/07/06 09:26:47;;;;;;;;;3.25;3.25;;;;;;;;5112602;27;45589;-65
2022/07/06 09:29:13;;;;;;;;;4.00;4.00;;;;;;;;5094519;27;45448;-65
2022/07/06 09:31:39;;;;;;;;;3.25;3.25;;;;;;;;5112454;27;45699;-65
2022/07/06 09:34:05;;;;;;;;;4.00;4.00;;;;;;;;5093296;27;45531;-65
2022/07/06 09:36:37;;;;;;;;;3.50;3.50;;;;;;;;5112144;27;49306;-65
2022/07/06 09:39:14;;;;;;;;;6.00;5.00;;;;;;;;5112356;27;45664;-65
2022/07/06 09:41:39;;;;;;;;;4.00;3.25;;;;;;;;5112133;27;46901;-65
2022/07/06 09:44:05;;;;;;;;;3.00;3.00;;;;;;;;5094382;27;46130;-65
2022/07/06 09:46:37;;;;;;;;;4.25;4.25;;;;;;;;5093636;27;45792;-65
2022/07/06 09:49:02;;;;;;;;;4.00;3.00;;;;;;;;5112193;27;45418;-64
2022/07/06 09:51:30;;;;;;;;;4.75;3.50;;;;;;;;5111924;27;45871;-66
2022/07/06 09:53:57;;;;;;;;;2.00;2.00;;;;;;;;5093237;27;45701;-65
2022/07/06 09:56:35;;;;;;;;;3.00;3.00;;;;;;;;5112277;27;45554;-65
2022/07/06 09:59:00;;;;;;;;;2.50;2.50;;;;;;;;5112472;27;45681;-67
2022/07/06 10:01:26;;;;;;;;;2.50;2.50;;;;;;;;5111301;27;47114;-65
2022/07/06 10:03:51;;;;;;;;;3.00;3.00;;;;;;;;5111615;27;45522;-66
2022/07/06 10:06:16;;;;;;;;;3.25;3.25;;;;;;;;5111873;27;45828;-65
2022/07/06 10:08:42;;;;;;;;;3.00;2.50;;;;;;;;5111883;27;45425;-66
2022/07/06 10:11:11;;;;;;;;;3.25;3.25;;;;;;;;5093567;27;46057;-66
2022/07/06 10:13:37;;;;;;;;;3.00;3.00;;;;;;;;5111676;27;45430;-66
2022/07/06 10:16:02;;;;;;;;;2.50;2.50;;;;;;;;5111799;27;45692;-65
2022/07/06 10:18:27;;;;;;;;;5.00;3.75;;;;;;;;5111999;27;46289;-65
2022/07/06 10:20:53;;;;;;;;;3.25;3.00;;;;;;;;5111727;27;46168;-66
2022/07/06 10:23:20;;;;;;;;;3.50;3.50;;;;;;;;5112064;27;45485;-64
2022/07/06 10:25:45;;;;;;;;;1.00;1.00;;;;;;;;5111753;27;45713;-65
2022/07/06 10:28:14;;;;;;;;;3.50;3.50;;;;;;;;5092576;27;45505;-64
2022/07/06 10:30:40;;;;;;;;;2.50;2.50;;;;;;;;5111068;27;45657;-66
2022/07/06 10:33:05;;;;;;;;;4.50;3.25;;;;;;;;5092613;27;45443;-66
2022/07/06 10:35:31;;;;;;;;;3.00;3.00;;;;;;;;5111219;27;45455;-64
2022/07/06 10:38:03;;;;;;;;;4.50;4.00;;;;;;;;5109767;27;45364;-66
2022/07/06 10:43:20;;;;;;;;;5.75;5.75;;;;;;;;5111027;27;45550;-67
2022/07/06 10:45:45;;;;;;;;;5.00;5.00;;;;;;;;5092575;27;45463;-65
2022/07/06 10:48:10;;;;;;;;;5.50;5.50;;;;;;;;5111200;27;45439;-66
2022/07/06 10:50:36;;;;;;;;;4.25;4.25;;;;;;;;5110723;27;46518;-65
2022/07/06 10:53:01;;;;;;;;;6.00;6.00;;;;;;;;5111516;27;46054;-64
2022/07/06 10:55:35;;;;;;;;;4.25;4.25;;;;;;;;5092360;27;45740;-67
2022/07/06 10:58:00;;;;;;;;;5.25;5.25;;;;;;;;5092449;27;45751;-66
2022/07/06 11:00:25;;;;;;;;;5.75;5.75;;;;;;;;5110668;27;46279;-67
2022/07/06 11:02:51;;;;;;;;;7.25;6.25;;;;;;;;5110974;27;45624;-65
2022/07/06 11:05:36;;;;;;;;;6.00;6.00;;;;;;;;5111710;27;45899;-65
2022/07/06 11:08:01;;;;;;;;;7.75;7.75;;;;;;;;5109726;27;45605;-66
2022/07/06 11:10:26;;;;;;;;;7.00;7.00;;;;;;;;5110476;27;46346;-67
2022/07/06 11:12:58;;;;;;;;;9.25;8.00;;;;;;;;5109867;27;46170;-65
2022/07/06 11:15:42;;;;;;;;;7.00;7.00;;;;;;;;5110858;27;45526;-65
2022/07/06 11:18:12;;;;;;;;;8.50;8.50;;;;;;;;5110741;27;45598;-65
2022/07/06 11:20:37;;;;;;;;;8.50;7.25;;;;;;;;5110636;27;45886;-66
2022/07/06 11:23:02;;;;;;;;;16.50;15.50;;;;;;;;5111341;27;45458;-64
2022/07/06 11:25:28;;;;;;;;;8.75;8.75;;;;;;;;5110715;27;45470;-65
2022/07/06 11:27:53;;;;;;;;;8.25;6.50;;;;;;;;5091834;27;45446;-65
2022/07/06 11:30:20;;;;;;;;;4.00;4.00;;;;;;;;5110777;27;46461;-66
2022/07/06 11:32:45;;;;;;;;;4.25;4.25;;;;;;;;5094312;27;45456;-66
2022/07/06 11:35:10;;;;;;;;;5.25;5.25;;;;;;;;5110892;27;45886;-65
2022/07/06 11:37:35;;;;;;;;;6.00;5.00;;;;;;;;5091759;27;45447;-67
2022/07/06 11:40:06;;;;;;;;;6.00;4.75;;;;;;;;5110087;27;46186;-65
2022/07/06 11:42:31;;;;;;;;;3.00;3.00;;;;;;;;5110122;27;45520;-65
2022/07/06 11:44:57;;;;;;;;;3.25;2.50;;;;;;;;5110512;27;45594;-65
2022/07/06 11:47:30;;;;;;;;;3.25;3.25;;;;;;;;5091882;27;45702;-66
2022/07/06 11:49:55;;;;;;;;;4.50;4.50;;;;;;;;5110384;27;46044;-66
2022/07/06 11:52:23;;;;;;;;;3.00;3.00;;;;;;;;5109767;27;45575;-64
2022/07/06 11:54:48;;;;;;;;;7.00;4.00;;;;;;;;5109873;27;45656;-66
2022/07/06 11:57:13;;;;;;;;;5.00;5.00;;;;;;;;5091503;27;45507;-66
2022/07/06 11:59:39;;;;;;;;;5.50;4.25;;;;;;;;5109863;27;46569;-65
2022/07/06 12:02:05;;;;;;;;;6.00;5.00;;;;;;;;5110515;27;45880;-65
2022/07/06 12:04:31;;;;;;;;;5.25;4.25;;;;;;;;5109985;27;45529;-65
2022/07/06 12:06:59;;;;;;;;;3.25;3.25;;;;;;;;5109922;27;45419;-65
2022/07/06 12:09:24;;;;;;;;;4.50;4.50;;;;;;;;5109669;27;46322;-66
2022/07/06 12:11:50;;;;;;;;;3.75;3.75;;;;;;;;5091219;27;45947;-65
2022/07/06 12:14:19;;;;;;;;;4.00;4.00;;;;;;;;5091921;27;45540;-65
2022/07/06 12:16:45;;;;;;;;;4.50;3.25;;;;;;;;5076664;27;45436;-65
2022/07/06 12:19:12;;;;;;;;;4.00;4.00;;;;;;;;5105165;27;46453;-65
2022/07/06 12:21:42;;;;;;;;;4.50;3.00;;;;;;;;5109616;27;45631;-65
2022/07/06 12:24:08;;;;;;;;;0.50;0.50;;;;;;;;5109748;27;45565;-65
2022/07/06 12:26:38;;;;;;;;;4.75;4.00;;;;;;;;5113500;27;45552;-65
2022/07/06 12:29:14;;;;;;;;;3.75;3.75;;;;;;;;5113662;27;45435;-65
2022/07/06 12:31:44;;;;;;;;;3.50;3.00;;;;;;;;5113028;27;45461;-65
2022/07/06 12:34:14;;;;;;;;;2.25;2.25;;;;;;;;5094390;27;45492;-65
2022/07/06 12:36:44;;;;;;;;;3.00;3.00;;;;;;;;5112971;27;45955;-65
2022/07/06 12:39:10;;;;;;;;;2.50;2.50;;;;;;;;5113328;27;46544;-66
2022/07/06 12:41:36;;;;;;;;;3.50;3.50;;;;;;;;5112886;27;45843;-65
2022/07/06 12:44:06;;;;;;;;;3.00;3.00;;;;;;;;5094978;27;45455;-65
2022/07/06 12:46:36;;;;;;;;;3.50;3.50;;;;;;;;5112897;27;45427;-65
2022/07/06 12:49:03;;;;;;;;;3.75;3.00;;;;;;;;5112726;27;46619;-65
2022/07/06 12:51:29;;;;;;;;;4.50;3.00;;;;;;;;5112741;27;45428;-65
2022/07/06 12:54:11;;;;;;;;;2.25;2.25;;;;;;;;5113206;27;45559;-65
2022/07/06 12:56:36;;;;;;;;;3.00;3.00;;;;;;;;5113120;27;45478;-66
2022/07/06 12:59:01;;;;;;;;;2.00;2.00;;;;;;;;5113245;27;45833;-66
2022/07/06 13:01:27;;;;;;;;;3.00;3.00;;;;;;;;5094119;27;45486;-66
2022/07/06 13:03:56;;;;;;;;;2.50;2.50;;;;;;;;5112872;27;45988;-66
2022/07/06 13:06:31;;;;;;;;;3.25;2.25;;;;;;;;5094401;27;45566;-66
2022/07/06 13:08:56;;;;;;;;;2.50;2.25;;;;;;;;5112720;27;46488;-65
2022/07/06 13:11:21;;;;;;;;;3.00;3.00;;;;;;;;5113211;27;45430;-65
2022/07/06 13:13:47;;;;;;;;;2.00;2.00;;;;;;;;5113585;27;45755;-66
2022/07/06 13:16:12;;;;;;;;;2.25;2.25;;;;;;;;5113065;27;45741;-66
2022/07/06 13:18:37;;;;;;;;;3.00;3.00;;;;;;;;5094090;27;48337;-67
2022/07/06 13:21:02;;;;;;;;;1.75;1.75;;;;;;;;5113120;27;45899;-66
2022/07/06 13:23:27;;;;;;;;;1.25;1.25;;;;;;;;5112778;27;45462;-66
2022/07/06 13:25:53;;;;;;;;;2.50;2.50;;;;;;;;5113436;27;45582;-65
2022/07/06 13:28:18;;;;;;;;;2.75;2.00;;;;;;;;5094218;27;45644;-66
2022/07/06 13:30:43;;;;;;;;;1.00;1.00;;;;;;;;5093662;27;46340;-65
2022/07/06 13:33:08;;;;;;;;;1.00;1.00;;;;;;;;5112560;27;45484;-66
2022/07/06 13:35:34;;;;;;;;;0.25;0.25;;;;;;;;5111819;27;45464;-66
2022/07/06 13:37:59;;;;;;;;;1.00;1.00;;;;;;;;5112980;27;45944;-66
2022/07/06 13:40:24;;;;;;;;;1.00;1.00;;;;;;;;5093678;27;46290;-65
2022/07/06 13:42:49;;;;;;;;;1.00;1.00;;;;;;;;5112216;27;45373;-65
2022/07/06 13:45:15;;;;;;;;;0.25;0.25;;;;;;;;5112422;27;45522;-65
2022/07/06 13:47:40;;;;;;;;;0.75;0.75;;;;;;;;5111981;27;45460;-65
2022/07/06 13:50:05;;;;;;;;;1.50;1.50;;;;;;;;5112731;27;45410;-66
2022/07/06 13:52:30;;;;;;;;;0.00;0.00;;;;;;;;5112060;27;45427;-66
2022/07/06 13:54:56;;;;;;;;;1.50;0.25;;;;;;;;5112113;27;45411;-66
2022/07/06 13:57:21;;;;;;;;;1.00;1.00;;;;;;;;5111814;27;45534;-66
2022/07/06 13:59:46;;;;;;;;;0.25;0.25;;;;;;;;5112136;27;45453;-64
2022/07/06 14:02:11;;;;;;;;;1.25;1.00;;;;;;;;5112883;27;45521;-66
2022/07/06 14:04:37;;;;;;;;;0.00;0.00;;;;;;;;5111932;27;45463;-65
2022/07/06 14:07:02;;;;;;;;;0.25;0.25;;;;;;;;5111761;27;46207;-66
2022/07/06 14:09:28;;;;;;;;;1.00;1.00;;;;;;;;5093100;27;46203;-66
2022/07/06 14:11:53;;;;;;;;;0.50;0.50;;;;;;;;5093153;27;45786;-65
2022/07/06 14:14:18;;;;;;;;;1.00;1.00;;;;;;;;5093354;27;45440;-66
2022/07/06 14:16:43;;;;;;;;;1.00;1.00;;;;;;;;5111534;27;46003;-66
2022/07/06 14:19:08;;;;;;;;;0.00;0.00;;;;;;;;5111656;27;45696;-66
2022/07/06 14:21:34;;;;;;;;;1.00;1.00;;;;;;;;5093285;27;45468;-66
2022/07/06 14:23:59;;;;;;;;;0.00;0.00;;;;;;;;5111595;27;46069;-65
2022/07/06 14:26:24;;;;;;;;;2.50;0.00;;;;;;;;5111518;27;47060;-65
2022/07/06 14:28:49;;;;;;;;;0.00;0.00;;;;;;;;5093409;27;45629;-65
2022/07/06 14:31:15;;;;;;;;;0.00;0.00;;;;;;;;5092758;27;45553;-66
2022/07/06 14:33:40;;;;;;;;;1.00;1.00;;;;;;;;5111700;27;47182;-65
2022/07/06 14:36:05;;;;;;;;;0.25;0.25;;;;;;;;5111531;27;47306;-66
2022/07/06 14:38:30;;;;;;;;;0.00;0.00;;;;;;;;5111781;27;45913;-65
2022/07/06 14:40:56;;;;;;;;;0.00;0.00;;;;;;;;5111905;27;45601;-65
2022/07/06 14:43:22;;;;;;;;;0.75;0.75;;;;;;;;5111436;27;45582;-65